ACA1164 CYYZ-KMIA
Flight info
| Callsign | ACA1164 |
|---|---|
| Flight time | N/A |
| Altitude | 40000 |
| Route | BETES3 AIRRA Q103 SLOJO/N0455F390 DCT EFFAY/N0463F400 Q83 JEVED Q97 DEBRL CSTAL3 |
| Aircraft | A333/H-SDE3GHIJ2J3J5M1RVWXY/LB2D1 |
Departure
| Time | 2026-05-08 07:39 |
|---|---|
| Airport | Toronto Pearson International Airport (CYYZ) |
Arrival
| Time | N/A |
|---|---|
| Airport | Miami International Airport (KMIA) |
| Time | Latitude | Longitude | Altitude | Speed | Heading |
|---|---|---|---|---|---|
| 2026-05-08 07:08 | 43.68493 | -79.62469 | 565 ft | 0 kts | 86° |
| 2026-05-08 07:30 | 43.68492 | -79.62477 | 573 ft | 4 kts | 85° |
| 2026-05-08 07:30 | 43.68489 | -79.62514 | 570 ft | 4 kts | 72° |
| 2026-05-08 07:31 | 43.68478 | -79.62546 | 571 ft | 4 kts | 44° |
| 2026-05-08 07:31 | 43.68460 | -79.62559 | 573 ft | 4 kts | 329° |
| 2026-05-08 07:31 | 43.68456 | -79.62555 | 572 ft | 1 kts | 315° |
| 2026-05-08 07:34 | 43.68459 | -79.62560 | 573 ft | 2 kts | 315° |
| 2026-05-08 07:34 | 43.68474 | -79.62582 | 573 ft | 4 kts | 313° |
| 2026-05-08 07:34 | 43.68492 | -79.62641 | 573 ft | 8 kts | 275° |
| 2026-05-08 07:35 | 43.68476 | -79.62704 | 574 ft | 5 kts | 233° |
| 2026-05-08 07:35 | 43.68441 | -79.62743 | 575 ft | 7 kts | 225° |
| 2026-05-08 07:35 | 43.68431 | -79.62801 | 574 ft | 6 kts | 280° |
| 2026-05-08 07:35 | 43.68456 | -79.62855 | 576 ft | 7 kts | 309° |
| 2026-05-08 07:36 | 43.68495 | -79.62914 | 576 ft | 9 kts | 314° |
| 2026-05-08 07:36 | 43.68548 | -79.62984 | 573 ft | 12 kts | 317° |
| 2026-05-08 07:36 | 43.68622 | -79.63080 | 574 ft | 19 kts | 316° |
| 2026-05-08 07:36 | 43.68716 | -79.63204 | 574 ft | 19 kts | 316° |
| 2026-05-08 07:37 | 43.68812 | -79.63330 | 576 ft | 19 kts | 317° |
| 2026-05-08 07:37 | 43.68908 | -79.63451 | 574 ft | 19 kts | 317° |
| 2026-05-08 07:37 | 43.69005 | -79.63577 | 573 ft | 17 kts | 323° |
| 2026-05-08 07:37 | 43.69127 | -79.63511 | 574 ft | 26 kts | 41° |
| 2026-05-08 07:38 | 43.69292 | -79.63416 | 571 ft | 27 kts | 11° |
| 2026-05-08 07:38 | 43.69448 | -79.63319 | 571 ft | 22 kts | 354° |
| 2026-05-08 07:38 | 43.69465 | -79.63431 | 576 ft | 15 kts | 230° |
| 2026-05-08 07:38 | 43.69272 | -79.63721 | 572 ft | 73 kts | 226° |
| 2026-05-08 07:39 | 43.68774 | -79.64437 | 573 ft | 133 kts | 226° |
| 2026-05-08 07:39 | 43.68027 | -79.65528 | 743 ft | 173 kts | 227° |
| 2026-05-08 07:39 | 43.67158 | -79.66811 | 1341 ft | 192 kts | 228° |
| 2026-05-08 07:39 | 43.66290 | -79.68255 | 2202 ft | 203 kts | 236° |
| 2026-05-08 07:40 | 43.65441 | -79.69959 | 2674 ft | 224 kts | 238° |
| 2026-05-08 07:40 | 43.64550 | -79.71780 | 3327 ft | 232 kts | 238° |
| 2026-05-08 07:40 | 43.63614 | -79.73664 | 3963 ft | 244 kts | 238° |
| 2026-05-08 07:40 | 43.62635 | -79.75601 | 4847 ft | 247 kts | 238° |
| 2026-05-08 07:41 | 43.61645 | -79.77540 | 5888 ft | 247 kts | 238° |
| 2026-05-08 07:41 | 43.60612 | -79.79437 | 6886 ft | 249 kts | 232° |
| 2026-05-08 07:41 | 43.59263 | -79.80989 | 7857 ft | 258 kts | 215° |
| 2026-05-08 07:41 | 43.57527 | -79.81798 | 8852 ft | 273 kts | 192° |
| 2026-05-08 07:42 | 43.55619 | -79.81392 | 9813 ft | 294 kts | 162° |
| 2026-05-08 07:42 | 43.53812 | -79.79922 | 10489 ft | 313 kts | 151° |
| 2026-05-08 07:42 | 43.51977 | -79.78094 | 10804 ft | 338 kts | 148° |
| 2026-05-08 07:42 | 43.50027 | -79.76098 | 11147 ft | 358 kts | 148° |
| 2026-05-08 07:43 | 43.47992 | -79.74030 | 11696 ft | 368 kts | 148° |
| 2026-05-08 07:43 | 43.45914 | -79.71935 | 12109 ft | 373 kts | 148° |
| 2026-05-08 07:43 | 43.43727 | -79.70021 | 12901 ft | 370 kts | 160° |
| 2026-05-08 07:43 | 43.41293 | -79.69055 | 13763 ft | 360 kts | 180° |
| 2026-05-08 07:44 | 43.38843 | -79.69300 | 14512 ft | 350 kts | 200° |
| 2026-05-08 07:44 | 43.36546 | -79.70352 | 15282 ft | 348 kts | 206° |
| 2026-05-08 07:44 | 43.34287 | -79.71580 | 16029 ft | 350 kts | 207° |
| 2026-05-08 07:44 | 43.32013 | -79.72835 | 16768 ft | 354 kts | 207° |
| 2026-05-08 07:45 | 43.29710 | -79.74097 | 17487 ft | 358 kts | 207° |
| 2026-05-08 07:45 | 43.27378 | -79.75362 | 18199 ft | 362 kts | 207° |
| 2026-05-08 07:45 | 43.24981 | -79.76506 | 18815 ft | 369 kts | 202° |
| 2026-05-08 07:45 | 43.22477 | -79.77426 | 19414 ft | 375 kts | 200° |
| 2026-05-08 07:46 | 43.19964 | -79.78281 | 19994 ft | 379 kts | 200° |
| 2026-05-08 07:46 | 43.17398 | -79.79143 | 20544 ft | 382 kts | 200° |
| 2026-05-08 07:46 | 43.14797 | -79.80018 | 21102 ft | 386 kts | 201° |
| 2026-05-08 07:46 | 43.12175 | -79.80901 | 21710 ft | 389 kts | 201° |
| 2026-05-08 07:47 | 43.09536 | -79.81792 | 22287 ft | 392 kts | 201° |
| 2026-05-08 07:47 | 43.06875 | -79.82692 | 22829 ft | 395 kts | 201° |
| 2026-05-08 07:47 | 43.04192 | -79.83598 | 23370 ft | 399 kts | 202° |
| 2026-05-08 07:47 | 43.01482 | -79.84513 | 23833 ft | 403 kts | 202° |
| 2026-05-08 07:48 | 42.99675 | -79.85122 | 24113 ft | 405 kts | 202° |
| 2026-05-08 07:48 | 42.96928 | -79.86048 | 24508 ft | 408 kts | 202° |
| 2026-05-08 07:48 | 42.94156 | -79.86982 | 24903 ft | 412 kts | 202° |
| 2026-05-08 07:48 | 42.91353 | -79.87924 | 25332 ft | 415 kts | 202° |
| 2026-05-08 07:49 | 42.88540 | -79.88869 | 25769 ft | 418 kts | 202° |
| 2026-05-08 07:49 | 42.85699 | -79.89822 | 26182 ft | 421 kts | 202° |
| 2026-05-08 07:49 | 42.82836 | -79.90741 | 26603 ft | 427 kts | 200° |
| 2026-05-08 07:49 | 42.79903 | -79.91528 | 27012 ft | 431 kts | 199° |
| 2026-05-08 07:50 | 42.76945 | -79.92280 | 27377 ft | 435 kts | 199° |
| 2026-05-08 07:50 | 42.73956 | -79.93035 | 27761 ft | 438 kts | 200° |
| 2026-05-08 07:50 | 42.70947 | -79.93798 | 28166 ft | 441 kts | 200° |
| 2026-05-08 07:50 | 42.67918 | -79.94566 | 28574 ft | 444 kts | 199° |
| 2026-05-08 07:51 | 42.64870 | -79.95340 | 28975 ft | 447 kts | 200° |
| 2026-05-08 07:51 | 42.61809 | -79.96119 | 29349 ft | 450 kts | 200° |
| 2026-05-08 07:51 | 42.58719 | -79.96905 | 29747 ft | 453 kts | 199° |
| 2026-05-08 07:51 | 42.55613 | -79.97693 | 30126 ft | 454 kts | 200° |
| 2026-05-08 07:52 | 42.52496 | -79.98482 | 30476 ft | 456 kts | 200° |
| 2026-05-08 07:52 | 42.49411 | -79.99263 | 30789 ft | 458 kts | 200° |
| 2026-05-08 07:52 | 42.46268 | -80.00060 | 31118 ft | 461 kts | 200° |
| 2026-05-08 07:52 | 42.43109 | -80.00858 | 31436 ft | 463 kts | 200° |
| 2026-05-08 07:53 | 42.39930 | -80.01662 | 31764 ft | 465 kts | 200° |
| 2026-05-08 07:53 | 42.36738 | -80.02466 | 32204 ft | 465 kts | 200° |
| 2026-05-08 07:53 | 42.33564 | -80.03266 | 32697 ft | 463 kts | 199° |
| 2026-05-08 07:53 | 42.30407 | -80.04055 | 33153 ft | 461 kts | 200° |
| 2026-05-08 07:54 | 42.27243 | -80.04848 | 33590 ft | 461 kts | 199° |
| 2026-05-08 07:54 | 42.24033 | -80.05387 | 34008 ft | 469 kts | 192° |
| 2026-05-08 07:54 | 42.20753 | -80.05520 | 34324 ft | 474 kts | 190° |
| 2026-05-08 07:54 | 42.17449 | -80.05547 | 34588 ft | 475 kts | 189° |
| 2026-05-08 07:55 | 42.14144 | -80.05557 | 34938 ft | 474 kts | 189° |
| 2026-05-08 07:55 | 42.10854 | -80.05570 | 35259 ft | 473 kts | 189° |
| 2026-05-08 07:55 | 42.07555 | -80.05589 | 35560 ft | 474 kts | 189° |
| 2026-05-08 07:55 | 42.04256 | -80.05611 | 35847 ft | 474 kts | 189° |
| 2026-05-08 07:56 | 42.01001 | -80.05634 | 36124 ft | 474 kts | 189° |
| 2026-05-08 07:56 | 41.97699 | -80.05658 | 36416 ft | 475 kts | 189° |
| 2026-05-08 07:56 | 41.94399 | -80.05681 | 36690 ft | 474 kts | 190° |
| 2026-05-08 07:56 | 41.91110 | -80.05705 | 37018 ft | 473 kts | 189° |
| 2026-05-08 07:57 | 41.87818 | -80.05730 | 37282 ft | 473 kts | 189° |
| 2026-05-08 07:57 | 41.84513 | -80.05756 | 37541 ft | 474 kts | 189° |
| 2026-05-08 07:57 | 41.81212 | -80.05782 | 37779 ft | 475 kts | 189° |
| 2026-05-08 07:57 | 41.77904 | -80.05807 | 38034 ft | 475 kts | 189° |
| 2026-05-08 07:58 | 41.74590 | -80.05832 | 38293 ft | 475 kts | 189° |
| 2026-05-08 07:58 | 41.71285 | -80.05856 | 38603 ft | 474 kts | 189° |
| 2026-05-08 07:58 | 41.67986 | -80.05881 | 38814 ft | 474 kts | 189° |
| 2026-05-08 07:58 | 41.64682 | -80.05906 | 39007 ft | 475 kts | 189° |
| 2026-05-08 07:59 | 41.61379 | -80.05931 | 39204 ft | 475 kts | 189° |
| 2026-05-08 07:59 | 41.58067 | -80.05956 | 39406 ft | 475 kts | 189° |
| 2026-05-08 07:59 | 41.54758 | -80.05981 | 39565 ft | 474 kts | 189° |
| 2026-05-08 07:59 | 41.51507 | -80.06004 | 39843 ft | 472 kts | 190° |
| 2026-05-08 08:00 | 41.48221 | -80.06028 | 39966 ft | 473 kts | 189° |
| 2026-05-08 08:00 | 41.41610 | -80.06079 | 39983 ft | 475 kts | 189° |
| 2026-05-08 08:01 | 41.34978 | -80.06125 | 39986 ft | 476 kts | 189° |
| 2026-05-08 08:01 | 41.28366 | -80.06173 | 39984 ft | 475 kts | 190° |
| 2026-05-08 08:02 | 41.21759 | -80.06222 | 39995 ft | 474 kts | 189° |
| 2026-05-08 08:02 | 41.15156 | -80.06272 | 40008 ft | 474 kts | 190° |
| 2026-05-08 08:03 | 41.08591 | -80.06318 | 40017 ft | 475 kts | 190° |
| 2026-05-08 08:03 | 41.01977 | -80.06358 | 40029 ft | 475 kts | 190° |
| 2026-05-08 08:04 | 40.95355 | -80.06344 | 40034 ft | 479 kts | 187° |
| 2026-05-08 08:04 | 40.88645 | -80.05284 | 40022 ft | 490 kts | 180° |
| 2026-05-08 08:05 | 40.81909 | -80.03810 | 40028 ft | 491 kts | 180° |
| 2026-05-08 08:05 | 40.75163 | -80.02326 | 40000 ft | 491 kts | 180° |
| 2026-05-08 08:06 | 40.68406 | -80.00843 | 39978 ft | 491 kts | 181° |
| 2026-05-08 08:06 | 40.61670 | -79.99335 | 40005 ft | 491 kts | 180° |
| 2026-05-08 08:07 | 40.54969 | -79.97829 | 40001 ft | 491 kts | 180° |
| 2026-05-08 08:07 | 40.51593 | -79.97070 | 39996 ft | 491 kts | 180° |
| 2026-05-08 08:08 | 40.41499 | -79.94777 | 39988 ft | 490 kts | 180° |
| 2026-05-08 08:08 | 40.34786 | -79.93225 | 39991 ft | 489 kts | 180° |
| 2026-05-08 08:09 | 40.28079 | -79.91674 | 39989 ft | 489 kts | 180° |
| 2026-05-08 08:09 | 40.21376 | -79.90129 | 39995 ft | 489 kts | 181° |
| 2026-05-08 08:10 | 40.21338 | -79.90120 | 39995 ft | 489 kts | 180° |
| 2026-05-08 08:10 | 40.14742 | -79.88602 | 40002 ft | 489 kts | 180° |
| 2026-05-08 08:11 | 40.08037 | -79.87058 | 40012 ft | 489 kts | 180° |
| 2026-05-08 08:11 | 40.01329 | -79.85511 | 40002 ft | 489 kts | 180° |
| 2026-05-08 08:12 | 39.94630 | -79.83949 | 40029 ft | 488 kts | 180° |
| 2026-05-08 08:12 | 39.87938 | -79.82387 | 40030 ft | 488 kts | 180° |
| 2026-05-08 08:13 | 39.81254 | -79.80827 | 40033 ft | 488 kts | 180° |
| 2026-05-08 08:13 | 39.74562 | -79.79248 | 40029 ft | 488 kts | 180° |
| 2026-05-08 08:14 | 39.67923 | -79.77668 | 40037 ft | 487 kts | 180° |
| 2026-05-08 08:14 | 39.61267 | -79.76080 | 40029 ft | 486 kts | 180° |
| 2026-05-08 08:15 | 39.54614 | -79.74481 | 40032 ft | 486 kts | 181° |
| 2026-05-08 08:15 | 39.47969 | -79.72839 | 40041 ft | 486 kts | 180° |
| 2026-05-08 08:16 | 39.41325 | -79.71193 | 40046 ft | 486 kts | 180° |
| 2026-05-08 08:16 | 39.34678 | -79.69551 | 39987 ft | 486 kts | 181° |
| 2026-05-08 08:17 | 39.28030 | -79.67817 | 40049 ft | 487 kts | 180° |
| 2026-05-08 08:17 | 39.21441 | -79.66058 | 40049 ft | 486 kts | 180° |
| 2026-05-08 08:18 | 39.14778 | -79.64277 | 40075 ft | 486 kts | 180° |
| 2026-05-08 08:18 | 39.08185 | -79.62490 | 40063 ft | 487 kts | 180° |
| 2026-05-08 08:19 | 39.01553 | -79.60641 | 40071 ft | 487 kts | 180° |
| 2026-05-08 08:19 | 38.94936 | -79.58784 | 40070 ft | 486 kts | 180° |
| 2026-05-08 08:20 | 38.88321 | -79.56932 | 40015 ft | 486 kts | 180° |
| 2026-05-08 08:20 | 38.81747 | -79.55034 | 40068 ft | 487 kts | 180° |
| 2026-05-08 08:21 | 38.75135 | -79.53093 | 40070 ft | 488 kts | 180° |
| 2026-05-08 08:21 | 38.68523 | -79.51160 | 40067 ft | 488 kts | 181° |
| 2026-05-08 08:22 | 38.61897 | -79.49217 | 40068 ft | 488 kts | 180° |
| 2026-05-08 08:22 | 38.55274 | -79.47239 | 40070 ft | 488 kts | 180° |
| 2026-05-08 08:23 | 38.48662 | -79.45262 | 40068 ft | 488 kts | 180° |
| 2026-05-08 08:23 | 38.42041 | -79.43297 | 40074 ft | 488 kts | 180° |
| 2026-05-08 08:24 | 38.35463 | -79.41315 | 40059 ft | 489 kts | 180° |
| 2026-05-08 08:24 | 38.28842 | -79.39315 | 40058 ft | 489 kts | 180° |
| 2026-05-08 08:25 | 38.22213 | -79.37320 | 40059 ft | 489 kts | 180° |
| 2026-05-08 08:25 | 38.15581 | -79.35305 | 40027 ft | 489 kts | 180° |
| 2026-05-08 08:26 | 38.08964 | -79.33251 | 40055 ft | 490 kts | 180° |
| 2026-05-08 08:26 | 38.02485 | -79.32197 | 40057 ft | 447 kts | 200° |
| 2026-05-08 08:26 | 37.99470 | -79.32806 | 40061 ft | 431 kts | 207° |
| 2026-05-08 08:27 | 37.96585 | -79.33755 | 40096 ft | 424 kts | 211° |
| 2026-05-08 08:27 | 37.90953 | -79.35942 | 40111 ft | 423 kts | 212° |
| 2026-05-08 08:28 | 37.85285 | -79.38046 | 40112 ft | 426 kts | 210° |
| 2026-05-08 08:28 | 37.79550 | -79.39999 | 40106 ft | 427 kts | 209° |
| 2026-05-08 08:29 | 37.73816 | -79.41878 | 40098 ft | 428 kts | 209° |
| 2026-05-08 08:29 | 37.68044 | -79.43758 | 40084 ft | 427 kts | 210° |
| 2026-05-08 08:30 | 37.62300 | -79.45632 | 40076 ft | 426 kts | 210° |
| 2026-05-08 08:30 | 37.53687 | -79.48452 | 40039 ft | 426 kts | 210° |
| 2026-05-08 08:31 | 37.47949 | -79.50319 | 40007 ft | 426 kts | 210° |
| 2026-05-08 08:31 | 37.42218 | -79.52187 | 40044 ft | 425 kts | 210° |
| 2026-05-08 08:32 | 37.36530 | -79.54043 | 40043 ft | 425 kts | 210° |
| 2026-05-08 08:32 | 37.30802 | -79.55906 | 40044 ft | 425 kts | 210° |
| 2026-05-08 08:33 | 37.25072 | -79.57766 | 39980 ft | 425 kts | 211° |
| 2026-05-08 08:33 | 37.19348 | -79.59619 | 40046 ft | 425 kts | 211° |
| 2026-05-08 08:34 | 37.13621 | -79.61469 | 40043 ft | 425 kts | 211° |
| 2026-05-08 08:34 | 37.07922 | -79.63310 | 40041 ft | 425 kts | 210° |
| 2026-05-08 08:35 | 37.02190 | -79.65160 | 39984 ft | 425 kts | 211° |
| 2026-05-08 08:35 | 36.96472 | -79.66998 | 40040 ft | 424 kts | 211° |
| 2026-05-08 08:36 | 36.90766 | -79.68829 | 40037 ft | 423 kts | 211° |
| 2026-05-08 08:36 | 36.86024 | -79.70352 | 40039 ft | 423 kts | 211° |
| 2026-05-08 08:37 | 36.80319 | -79.72182 | 40044 ft | 423 kts | 211° |
| 2026-05-08 08:37 | 36.74613 | -79.74007 | 40053 ft | 423 kts | 210° |
| 2026-05-08 08:38 | 36.68910 | -79.75828 | 40059 ft | 423 kts | 211° |
| 2026-05-08 08:38 | 36.63205 | -79.77648 | 40063 ft | 423 kts | 211° |
| 2026-05-08 08:39 | 36.57505 | -79.79462 | 40062 ft | 423 kts | 211° |
| 2026-05-08 08:39 | 36.51803 | -79.81274 | 40048 ft | 423 kts | 210° |
| 2026-05-08 08:40 | 36.46098 | -79.83085 | 40061 ft | 423 kts | 210° |
| 2026-05-08 08:40 | 36.40391 | -79.84894 | 40055 ft | 423 kts | 210° |
| 2026-05-08 08:41 | 36.34685 | -79.86701 | 40050 ft | 423 kts | 210° |
| 2026-05-08 08:41 | 36.29014 | -79.88493 | 40046 ft | 423 kts | 210° |
| 2026-05-08 08:42 | 36.23310 | -79.90293 | 40033 ft | 423 kts | 210° |
| 2026-05-08 08:42 | 36.17609 | -79.92090 | 40035 ft | 422 kts | 210° |
| 2026-05-08 08:43 | 36.11917 | -79.93883 | 40036 ft | 423 kts | 210° |
| 2026-05-08 08:43 | 36.06216 | -79.95676 | 40011 ft | 423 kts | 210° |
| 2026-05-08 08:44 | 36.00490 | -79.97477 | 40035 ft | 425 kts | 210° |
| 2026-05-08 08:44 | 35.94739 | -79.99279 | 40031 ft | 426 kts | 210° |
| 2026-05-08 08:45 | 35.88992 | -80.01075 | 40028 ft | 426 kts | 210° |
| 2026-05-08 08:45 | 35.83242 | -80.02869 | 40014 ft | 426 kts | 210° |
| 2026-05-08 08:46 | 35.77467 | -80.04675 | 40050 ft | 429 kts | 210° |
| 2026-05-08 08:46 | 35.71672 | -80.06483 | 40061 ft | 430 kts | 210° |
| 2026-05-08 08:47 | 35.65862 | -80.08287 | 40061 ft | 430 kts | 210° |
| 2026-05-08 08:47 | 35.60090 | -80.10076 | 40058 ft | 430 kts | 210° |
| 2026-05-08 08:48 | 35.54280 | -80.11877 | 40082 ft | 430 kts | 210° |
| 2026-05-08 08:48 | 35.48471 | -80.13676 | 40093 ft | 430 kts | 210° |
| 2026-05-08 08:49 | 35.42662 | -80.15472 | 40092 ft | 430 kts | 210° |
| 2026-05-08 08:49 | 35.36856 | -80.17283 | 40094 ft | 425 kts | 213° |
| 2026-05-08 08:50 | 35.34316 | -80.18758 | 40051 ft | 388 kts | 229° |
| 2026-05-08 08:50 | 35.32262 | -80.20804 | 40090 ft | 376 kts | 235° |
| 2026-05-08 08:50 | 35.28619 | -80.25329 | 40079 ft | 371 kts | 238° |
| 2026-05-08 08:51 | 35.24858 | -80.29692 | 40071 ft | 395 kts | 224° |
| 2026-05-08 08:51 | 35.20036 | -80.33030 | 40062 ft | 400 kts | 223° |
| 2026-05-08 08:52 | 35.15146 | -80.36318 | 40043 ft | 401 kts | 223° |
| 2026-05-08 08:52 | 35.10251 | -80.39606 | 40022 ft | 401 kts | 223° |
| 2026-05-08 08:53 | 35.05351 | -80.42895 | 40048 ft | 401 kts | 223° |
| 2026-05-08 08:53 | 35.00452 | -80.46182 | 40042 ft | 401 kts | 223° |
| 2026-05-08 08:54 | 34.95586 | -80.49446 | 40042 ft | 401 kts | 223° |
| 2026-05-08 08:54 | 34.90666 | -80.52747 | 40047 ft | 401 kts | 223° |
| 2026-05-08 08:55 | 34.85811 | -80.56002 | 40038 ft | 401 kts | 222° |
| 2026-05-08 08:55 | 34.80918 | -80.59282 | 40044 ft | 401 kts | 223° |
| 2026-05-08 08:56 | 34.76025 | -80.62560 | 40051 ft | 401 kts | 222° |
| 2026-05-08 08:56 | 34.71133 | -80.65836 | 40050 ft | 401 kts | 222° |
| 2026-05-08 08:57 | 34.66248 | -80.69106 | 40053 ft | 401 kts | 222° |
| 2026-05-08 08:57 | 34.61354 | -80.72380 | 40039 ft | 401 kts | 222° |
| 2026-05-08 08:58 | 34.56463 | -80.75647 | 40047 ft | 401 kts | 222° |
| 2026-05-08 08:58 | 34.51604 | -80.78893 | 40044 ft | 401 kts | 222° |
| 2026-05-08 08:59 | 34.46711 | -80.82163 | 40039 ft | 401 kts | 222° |
| 2026-05-08 08:59 | 34.41822 | -80.85429 | 40041 ft | 401 kts | 222° |
| 2026-05-08 09:00 | 34.36934 | -80.88694 | 40038 ft | 401 kts | 222° |
| 2026-05-08 09:00 | 34.32045 | -80.91958 | 40051 ft | 401 kts | 222° |
| 2026-05-08 09:01 | 34.27196 | -80.95193 | 40049 ft | 400 kts | 222° |
| 2026-05-08 09:01 | 34.22323 | -80.98444 | 40048 ft | 400 kts | 222° |
| 2026-05-08 09:02 | 34.17454 | -81.01693 | 40046 ft | 399 kts | 222° |
| 2026-05-08 09:02 | 34.12570 | -81.04951 | 40032 ft | 400 kts | 222° |
| 2026-05-08 09:03 | 34.07717 | -81.08190 | 40040 ft | 401 kts | 222° |
| 2026-05-08 09:03 | 34.02828 | -81.11451 | 40039 ft | 402 kts | 222° |
| 2026-05-08 09:04 | 33.97934 | -81.14713 | 40031 ft | 401 kts | 222° |
| 2026-05-08 09:04 | 33.93045 | -81.17972 | 40039 ft | 401 kts | 222° |
| 2026-05-08 09:05 | 33.88155 | -81.21233 | 40021 ft | 401 kts | 222° |
| 2026-05-08 09:05 | 33.83006 | -81.24090 | 40034 ft | 429 kts | 207° |
| 2026-05-08 09:06 | 33.79979 | -81.24609 | 40025 ft | 446 kts | 199° |
| 2026-05-08 09:06 | 33.76895 | -81.24838 | 40023 ft | 451 kts | 197° |
| 2026-05-08 09:06 | 33.70570 | -81.25105 | 40014 ft | 457 kts | 195° |
| 2026-05-08 09:07 | 33.64132 | -81.24766 | 39960 ft | 480 kts | 183° |
| 2026-05-08 09:07 | 33.57545 | -81.22823 | 40015 ft | 491 kts | 178° |
| 2026-05-08 09:08 | 33.50915 | -81.20696 | 40016 ft | 493 kts | 178° |
| 2026-05-08 09:08 | 33.44291 | -81.18565 | 40017 ft | 493 kts | 178° |
| 2026-05-08 09:09 | 33.37699 | -81.16445 | 40026 ft | 493 kts | 178° |
| 2026-05-08 09:09 | 33.31067 | -81.14338 | 40023 ft | 493 kts | 178° |
| 2026-05-08 09:10 | 33.24423 | -81.12237 | 40024 ft | 494 kts | 178° |
| 2026-05-08 09:10 | 33.17777 | -81.10137 | 40023 ft | 494 kts | 178° |
| 2026-05-08 09:11 | 33.11125 | -81.08037 | 40017 ft | 494 kts | 178° |
| 2026-05-08 09:11 | 33.04475 | -81.05936 | 40009 ft | 494 kts | 178° |
| 2026-05-08 09:12 | 32.97879 | -81.03856 | 40009 ft | 494 kts | 178° |
| 2026-05-08 09:12 | 32.91236 | -81.01761 | 40009 ft | 494 kts | 178° |
| 2026-05-08 09:13 | 32.84591 | -80.99665 | 40010 ft | 494 kts | 178° |
| 2026-05-08 09:13 | 32.77951 | -80.97593 | 40013 ft | 493 kts | 178° |
| 2026-05-08 09:14 | 32.71295 | -80.95540 | 40003 ft | 494 kts | 178° |
| 2026-05-08 09:14 | 32.64645 | -80.93490 | 40003 ft | 494 kts | 178° |
| 2026-05-08 09:15 | 32.57987 | -80.91437 | 39998 ft | 494 kts | 178° |
| 2026-05-08 09:15 | 32.51378 | -80.89438 | 40000 ft | 493 kts | 178° |
| 2026-05-08 09:16 | 32.44711 | -80.87469 | 39999 ft | 493 kts | 178° |
| 2026-05-08 09:16 | 32.38042 | -80.85502 | 39998 ft | 493 kts | 178° |
| 2026-05-08 09:17 | 32.31375 | -80.83536 | 40006 ft | 493 kts | 178° |
| 2026-05-08 09:17 | 32.24714 | -80.81587 | 40002 ft | 492 kts | 178° |